Time;durP1;ratioP1;P1;durP2;ratioP2;P2;SDS_P1;SDS_P2;PMS_P1;PMS_P2;Temp;Humidity;BMP_temperature;BMP_pressure;BME280_temperature;BME280_humidity;BME280_pressure;Samples;Min_cycle;Max_cycle;Signal;HPM_P1;HPM_P2
2022/03/21 00:02:11;;;;;;;29.30;18.35;;;4.00;1.00;;;;;;5032704;28;20049;-81
2022/03/21 00:04:58;;;;;;;32.35;19.10;;;4.00;40.40;;;;;;5047890;28;20052;-82
2022/03/21 00:07:49;;;;;;;33.47;19.27;;;3.90;99.90;;;;;;5086011;28;20045;-83
2022/03/21 00:10:39;;;;;;;34.72;19.33;;;3.80;99.70;;;;;;5082500;28;20049;-80
2022/03/21 00:13:29;;;;;;;36.72;18.95;;;3.70;99.90;;;;;;5073705;28;20063;-81
2022/03/21 00:16:16;;;;;;;31.65;18.45;;;3.60;99.90;;;;;;5080981;28;20040;-81
2022/03/21 00:19:04;;;;;;;30.08;18.60;;;3.60;99.90;;;;;;5086531;28;20055;-81
2022/03/21 00:21:57;;;;;;;30.55;17.65;;;3.50;99.90;;;;;;5046284;28;20032;-81
2022/03/21 00:24:44;;;;;;;31.02;18.52;;;3.50;99.90;;;;;;5065654;28;20067;-80
2022/03/21 00:27:38;;;;;;;27.98;15.73;;;3.50;1.00;;;;;;5032285;28;20049;-81
2022/03/21 00:30:27;;;;;;;25.98;15.38;;;3.90;99.90;;;;;;5032307;28;20041;-82
2022/03/21 00:33:14;;;;;;;28.77;16.60;;;4.30;99.90;;;;;;5038330;28;20455;-82
2022/03/21 00:36:02;;;;;;;26.75;16.70;;;4.50;99.90;;;;;;5044887;28;20067;-80
2022/03/21 00:38:49;;;;;;;26.40;15.93;;;4.80;99.90;;;;;;5040536;28;20131;-80
2022/03/21 00:41:36;;;;;;;22.08;14.20;;;5.00;99.90;;;;;;5045816;28;20044;-80
2022/03/21 00:44:26;;;;;;;24.60;15.68;;;5.20;99.90;;;;;;5034078;28;20050;-81
2022/03/21 00:47:16;;;;;;;24.52;14.80;;;5.30;99.90;;;;;;5052665;28;20060;-80
2022/03/21 00:50:05;;;;;;;24.60;14.15;;;5.30;99.90;;;;;;5049331;28;20489;-81
2022/03/21 00:52:56;;;;;;;29.67;16.02;;;5.30;99.90;;;;;;5037325;28;20041;-81
2022/03/21 00:55:45;;;;;;;24.98;14.77;;;5.30;99.90;;;;;;5057523;28;20053;-80
2022/03/21 00:58:32;;;;;;;34.70;15.35;;;5.50;99.90;;;;;;5066205;28;20048;-81
2022/03/21 01:01:23;;;;;;;24.75;13.93;;;5.50;99.90;;;;;;5056262;28;20056;-80
2022/03/21 01:04:10;;;;;;;24.48;14.82;;;5.50;99.90;;;;;;5041243;28;20045;-79
2022/03/21 01:06:57;;;;;;;24.77;15.27;;;5.40;99.90;;;;;;5048778;28;20257;-80
2022/03/21 01:09:45;;;;;;;22.05;14.05;;;5.50;99.90;;;;;;5061045;28;20045;-80
2022/03/21 01:12:33;;;;;;;22.98;14.27;;;5.60;1.00;;;;;;5044990;28;20501;-80
2022/03/21 01:15:22;;;;;;;23.50;15.00;;;5.60;1.00;;;;;;5045128;28;20385;-81
2022/03/21 01:18:09;;;;;;;27.85;15.05;;;5.50;99.90;;;;;;5042638;28;20092;-79
2022/03/21 01:20:56;;;;;;;23.40;13.48;;;5.50;44.60;;;;;;5047732;28;20041;-80
2022/03/21 01:23:44;;;;;;;23.95;14.13;;;5.30;58.90;;;;;;5038184;28;20068;-79
2022/03/21 01:26:33;;;;;;;23.25;15.27;;;5.00;9.00;;;;;;5062619;28;20052;-79
2022/03/21 01:29:20;;;;;;;27.65;14.05;;;4.90;19.60;;;;;;5044460;28;20144;-80
2022/03/21 01:32:11;;;;;;;21.02;14.05;;;4.80;18.10;;;;;;5053049;28;20045;-80
2022/03/21 01:34:58;;;;;;;24.05;14.95;;;4.90;1.00;;;;;;5050644;28;20663;-81
2022/03/21 01:37:49;;;;;;;25.33;15.15;;;4.90;1.00;;;;;;5064416;28;20055;-81
2022/03/21 01:40:39;;;;;;;24.38;13.65;;;4.90;1.00;;;;;;5041590;28;20056;-81
2022/03/21 01:43:26;;;;;;;25.10;15.23;;;4.90;1.00;;;;;;5061366;28;20040;-81
2022/03/21 01:46:15;;;;;;;24.60;13.73;;;4.90;1.00;;;;;;5044913;28;20130;-82
2022/03/21 01:49:11;;;;;;;25.52;14.00;;;4.90;1.00;;;;;;5059326;28;20118;-81
2022/03/21 01:52:05;;;;;;;26.00;15.20;;;4.80;1.00;;;;;;5064957;28;20543;-81
2022/03/21 01:58:00;;;;;;;25.00;14.80;;;4.40;8.40;;;;;;5055826;28;20059;-81
2022/03/21 02:00:48;;;;;;;29.15;16.05;;;4.10;1.00;;;;;;5062237;28;20369;-79
2022/03/21 02:03:35;;;;;;;26.17;15.80;;;3.80;1.00;;;;;;5058666;28;20132;-82
2022/03/21 02:06:28;;;;;;;33.00;17.05;;;3.50;1.00;;;;;;5039902;28;20126;-79
2022/03/21 02:09:15;;;;;;;30.33;17.30;;;3.40;99.90;;;;;;5069209;28;20049;-80
2022/03/21 02:12:05;;;;;;;29.15;18.00;;;3.20;99.90;;;;;;5033172;28;20049;-79
2022/03/21 02:14:52;;;;;;;28.35;17.60;;;2.90;99.90;;;;;;5068158;28;20041;-80
2022/03/21 02:17:42;;;;;;;27.80;16.15;;;2.90;99.90;;;;;;5043033;28;20444;-80
2022/03/21 02:20:34;;;;;;;31.23;17.17;;;2.90;99.90;;;;;;5041785;28;20049;-80
2022/03/21 02:23:42;;;;;;;27.55;16.90;;;2.90;78.40;;;;;;5043568;28;20041;-80
2022/03/21 02:26:31;;;;;;;30.60;18.02;;;2.70;1.00;;;;;;5064230;28;20067;-79
2022/03/21 02:29:23;;;;;;;27.63;16.98;;;2.70;91.50;;;;;;5064229;28;20071;-82
2022/03/21 02:32:10;;;;;;;27.85;16.55;;;2.60;99.90;;;;;;5057436;28;20088;-82
2022/03/21 02:34:58;;;;;;;30.55;17.00;;;2.50;99.90;;;;;;5057423;28;20041;-81
2022/03/21 02:37:46;;;;;;;25.90;16.27;;;2.40;99.90;;;;;;5056982;28;20052;-81
2022/03/21 02:40:36;;;;;;;28.63;16.33;;;2.30;99.90;;;;;;5050885;28;20048;-81
2022/03/21 02:43:23;;;;;;;29.80;17.33;;;2.20;84.10;;;;;;5057174;28;20041;-79
2022/03/21 02:46:10;;;;;;;27.95;16.48;;;2.20;49.10;;;;;;5047116;28;20051;-80
2022/03/21 02:48:58;;;;;;;28.95;17.50;;;2.30;99.90;;;;;;5034164;28;20394;-82
2022/03/21 02:51:45;;;;;;;27.58;16.30;;;2.30;99.90;;;;;;5044524;28;20041;-81
2022/03/21 02:54:34;;;;;;;29.17;16.40;;;2.40;99.90;;;;;;5064991;28;20092;-80
2022/03/21 02:57:24;;;;;;;27.80;16.63;;;2.60;1.00;;;;;;5050860;28;20045;-79
2022/03/21 03:00:12;;;;;;;28.73;16.63;;;2.80;1.00;;;;;;5067275;28;20060;-80
2022/03/21 03:02:59;;;;;;;27.13;16.70;;;2.80;1.00;;;;;;5058535;28;20078;-81
2022/03/21 03:05:47;;;;;;;35.75;16.70;;;2.90;99.90;;;;;;5047639;28;20124;-81
2022/03/21 03:08:35;;;;;;;26.70;16.27;;;2.90;99.90;;;;;;5040429;28;20041;-78
2022/03/21 03:11:25;;;;;;;25.08;15.95;;;3.00;99.90;;;;;;5043101;28;20628;-79
2022/03/21 03:14:18;;;;;;;26.95;16.45;;;3.00;99.90;;;;;;5050253;28;20041;-79
2022/03/21 03:17:06;;;;;;;28.08;17.20;;;3.00;1.00;;;;;;5064662;28;20045;-82
2022/03/21 03:19:54;;;;;;;26.58;16.20;;;2.90;1.00;;;;;;5047376;28;20425;-79
2022/03/21 03:22:41;;;;;;;25.00;16.38;;;2.90;99.90;;;;;;5040403;28;20052;-79
2022/03/21 03:25:31;;;;;;;31.08;17.23;;;2.80;1.00;;;;;;5042444;28;20045;-82
2022/03/21 03:28:18;;;;;;;29.58;17.50;;;3.00;1.00;;;;;;5063889;28;21846;-79
2022/03/21 03:31:28;;;;;;;27.58;16.42;;;3.10;99.90;;;;;;5064017;28;20084;-79
2022/03/21 03:34:15;;;;;;;27.42;15.65;;;3.10;99.90;;;;;;5066577;28;20112;-79
2022/03/21 03:37:03;;;;;;;26.67;16.13;;;3.10;99.90;;;;;;5051810;28;20167;-80
2022/03/21 03:39:50;;;;;;;26.35;16.67;;;3.10;99.90;;;;;;5064874;28;20044;-81
2022/03/21 03:42:38;;;;;;;26.10;16.15;;;3.10;99.90;;;;;;5037358;28;20060;-82
2022/03/21 03:45:28;;;;;;;26.63;16.83;;;3.10;1.00;;;;;;5055400;28;20041;-82
2022/03/21 03:48:18;;;;;;;31.30;17.70;;;3.00;1.00;;;;;;5056304;28;20048;-81
2022/03/21 03:51:08;;;;;;;26.98;17.02;;;2.90;99.90;;;;;;5067483;28;20458;-81
2022/03/21 03:53:55;;;;;;;30.92;17.95;;;2.80;99.90;;;;;;5069006;28;20037;-79
2022/03/21 03:56:42;;;;;;;29.73;18.23;;;2.70;72.20;;;;;;5075027;28;20041;-80
2022/03/21 03:59:29;;;;;;;29.23;17.55;;;2.70;21.70;;;;;;5061581;28;20485;-80
2022/03/21 04:02:16;;;;;;;27.92;17.75;;;2.60;99.90;;;;;;5062547;28;20485;-80
2022/03/21 04:05:04;;;;;;;30.52;18.85;;;2.50;1.00;;;;;;5046155;28;20038;-82
2022/03/21 04:07:52;;;;;;;28.65;16.92;;;2.40;1.00;;;;;;5056191;28;20048;-81
2022/03/21 04:10:39;;;;;;;32.45;18.08;;;2.40;1.00;;;;;;5051767;28;20045;-82
2022/03/21 04:13:26;;;;;;;33.92;18.60;;;2.30;99.90;;;;;;5036596;28;20048;-81
2022/03/21 04:16:16;;;;;;;31.55;18.20;;;2.10;99.90;;;;;;5070041;28;20055;-79
2022/03/21 04:19:06;;;;;;;37.20;19.67;;;2.00;99.90;;;;;;5063863;28;20040;-80
2022/03/21 04:21:56;;;;;;;33.15;20.00;;;1.90;1.00;;;;;;5038061;28;20036;-80
2022/03/21 04:24:43;;;;;;;34.10;19.33;;;1.80;99.90;;;;;;5060536;28;20385;-79
2022/03/21 04:27:30;;;;;;;32.17;19.48;;;1.80;99.90;;;;;;5065848;28;20074;-82
2022/03/21 04:30:21;;;;;;;40.03;20.70;;;1.70;1.00;;;;;;5067488;28;20055;-81
2022/03/21 04:33:10;;;;;;;33.20;18.85;;;1.70;99.90;;;;;;5069124;28;20052;-81
2022/03/21 04:35:57;;;;;;;31.98;19.50;;;1.70;99.90;;;;;;5076257;28;20068;-81
2022/03/21 04:38:45;;;;;;;33.55;19.90;;;1.60;1.00;;;;;;5069388;28;20446;-79
2022/03/21 04:41:32;;;;;;;36.75;20.73;;;1.50;99.90;;;;;;5071974;28;20064;-80
2022/03/21 04:44:19;;;;;;;37.00;20.20;;;1.50;99.90;;;;;;5073941;28;20040;-80
2022/03/21 04:47:11;;;;;;;34.10;19.73;;;1.40;99.90;;;;;;5085274;28;20059;-83
2022/03/21 04:49:59;;;;;;;33.53;19.52;;;1.30;99.90;;;;;;5070472;28;20029;-82
2022/03/21 04:52:46;;;;;;;34.38;21.35;;;1.30;99.90;;;;;;5062715;28;20060;-82
2022/03/21 04:55:34;;;;;;;39.97;20.45;;;1.30;1.00;;;;;;5081349;28;20089;-82
2022/03/21 04:58:21;;;;;;;33.05;19.88;;;1.30;99.90;;;;;;5061288;28;20025;-81
2022/03/21 05:01:08;;;;;;;34.45;20.13;;;1.20;99.90;;;;;;5075184;28;20086;-81
2022/03/21 05:03:56;;;;;;;35.92;20.70;;;1.20;99.90;;;;;;5086089;28;20033;-81
2022/03/21 05:06:43;;;;;;;34.42;19.92;;;1.20;99.90;;;;;;5061854;28;20025;-82
2022/03/21 05:09:33;;;;;;;36.65;19.83;;;1.20;99.90;;;;;;5060036;28;20099;-82
2022/03/21 05:12:20;;;;;;;37.08;20.92;;;1.20;15.20;;;;;;5072670;28;20059;-83
2022/03/21 05:15:11;;;;;;;37.53;20.40;;;1.20;1.00;;;;;;5087639;28;20041;-80
2022/03/21 05:18:00;;;;;;;32.50;20.30;;;1.20;99.90;;;;;;5064069;28;20053;-80
2022/03/21 05:20:48;;;;;;;36.47;21.27;;;1.20;99.90;;;;;;5058137;28;20057;-79
2022/03/21 05:37:41;;;;;;;38.00;19.88;;;1.60;99.90;;;;;;5035012;28;20525;-84
2022/03/21 05:44:36;;;;;;;35.83;20.23;;;1.90;99.90;;;;;;5057101;28;20102;-85
2022/03/21 05:48:50;;;;;;;34.38;20.65;;;2.00;99.90;;;;;;5062746;28;20054;-83
2022/03/21 05:50:43;;;;;;;38.95;19.80;;;1.90;99.90;;;;;;5063124;28;20114;-84
2022/03/21 05:53:30;;;;;;;35.25;19.42;;;1.70;99.90;;;;;;5056524;28;20065;-82
2022/03/21 06:09:30;;;;;;;39.78;21.38;;;1.70;99.90;;;;;;5037492;28;20029;-84
2022/03/21 06:12:17;;;;;;;37.65;22.08;;;1.80;99.90;;;;;;5051800;28;20063;-85
2022/03/21 06:15:05;;;;;;;37.13;21.65;;;1.90;99.90;;;;;;5049940;28;20323;-87
2022/03/21 06:17:58;;;;;;;40.40;21.90;;;1.90;99.90;;;;;;5036287;28;20477;-88
2022/03/21 06:20:47;;;;;;;38.50;21.45;;;2.00;99.90;;;;;;5029554;28;20053;-80
2022/03/21 06:23:36;;;;;;;36.63;21.15;;;2.00;42.10;;;;;;5054906;28;20053;-82
2022/03/21 06:26:26;;;;;;;36.00;21.27;;;2.10;99.90;;;;;;5049145;28;20109;-80
2022/03/21 06:29:13;;;;;;;35.80;21.92;;;2.20;56.20;;;;;;5049091;28;20049;-81
2022/03/21 06:32:20;;;;;;;36.05;20.83;;;2.30;99.90;;;;;;5042881;28;20080;-82
2022/03/21 06:35:11;;;;;;;37.40;22.00;;;2.50;1.00;;;;;;5052826;28;20094;-81
2022/03/21 06:37:58;;;;;;;36.50;22.50;;;2.80;1.00;;;;;;5069390;28;20353;-82
2022/03/21 06:40:46;;;;;;;34.40;21.38;;;3.10;99.90;;;;;;5043474;28;20061;-82
2022/03/21 06:43:33;;;;;;;32.20;19.65;;;3.40;99.90;;;;;;5038325;28;20446;-82
2022/03/21 06:46:23;;;;;;;31.65;19.02;;;3.70;99.90;;;;;;5055319;28;20060;-80
2022/03/21 06:50:06;;;;;;;29.50;18.00;;;4.10;1.00;;;;;;5034909;28;20063;-84
2022/03/21 06:53:01;;;;;;;30.83;17.67;;;4.50;99.90;;;;;;5056189;28;20045;-80
2022/03/21 06:55:54;;;;;;;27.55;17.25;;;5.00;99.90;;;;;;5052596;28;20037;-81
2022/03/21 07:02:51;;;;;;;31.15;20.48;;;6.00;1.00;;;;;;5045569;28;20037;-80
2022/03/21 07:05:39;;;;;;;28.42;18.98;;;6.50;1.00;;;;;;5028948;28;20068;-80
2022/03/21 07:08:34;;;;;;;30.17;20.38;;;6.40;1.00;;;;;;5038284;28;20126;-81
2022/03/21 07:11:25;;;;;;;36.05;20.23;;;6.50;1.00;;;;;;5064141;28;20186;-83
2022/03/21 07:14:15;;;;;;;33.10;21.10;;;6.40;1.00;;;;;;5056238;28;20484;-82
2022/03/21 07:17:04;;;;;;;34.22;19.15;;;6.50;1.00;;;;;;5059060;28;20377;-80
2022/03/21 07:19:53;;;;;;;32.83;19.92;;;6.40;99.90;;;;;;5035366;28;20072;-80
2022/03/21 07:22:45;;;;;;;30.58;19.08;;;6.40;99.90;;;;;;5051443;28;20045;-79
2022/03/21 07:25:41;;;;;;;32.45;19.52;;;6.50;99.90;;;;;;5057801;28;20122;-80
2022/03/21 07:28:32;;;;;;;35.92;19.23;;;6.50;99.90;;;;;;5066097;28;20052;-80
2022/03/21 07:32:04;;;;;;;30.38;18.80;;;6.50;99.90;;;;;;5041390;28;20037;-80
2022/03/21 07:34:53;;;;;;;34.63;20.13;;;6.50;99.90;;;;;;5039888;28;20141;-80
2022/03/21 07:37:57;;;;;;;29.70;18.63;;;6.60;99.90;;;;;;5046613;28;20053;-79
2022/03/21 07:41:00;;;;;;;29.40;16.77;;;6.80;99.90;;;;;;5039209;28;20099;-80
2022/03/21 07:43:50;;;;;;;33.08;18.08;;;7.20;99.90;;;;;;5036266;28;20117;-81
2022/03/21 07:49:53;;;;;;;27.75;16.90;;;8.00;99.90;;;;;;5047001;28;20244;-81
2022/03/21 07:52:40;;;;;;;27.48;18.27;;;8.40;99.90;;;;;;5035671;28;20066;-82
2022/03/21 07:55:31;;;;;;;31.25;19.02;;;9.00;99.90;;;;;;5024948;28;20049;-80
2022/03/21 07:58:18;;;;;;;27.38;17.92;;;9.30;99.90;;;;;;5046547;28;20067;-80
2022/03/21 08:01:06;;;;;;;27.80;18.48;;;9.60;99.90;;;;;;5053364;28;20045;-81
2022/03/21 08:03:54;;;;;;;28.02;17.80;;;10.00;69.60;;;;;;5049997;28;20119;-83
2022/03/21 08:06:44;;;;;;;31.05;18.50;;;10.30;65.80;;;;;;5045762;28;20038;-81
2022/03/21 08:09:31;;;;;;;29.23;18.90;;;10.70;65.90;;;;;;5045683;28;20128;-80
2022/03/21 08:12:24;;;;;;;29.52;18.85;;;11.20;61.70;;;;;;5047033;28;20038;-81
2022/03/21 08:15:12;;;;;;;26.50;18.02;;;10.90;60.50;;;;;;5031959;28;20037;-81
2022/03/21 08:18:05;;;;;;;33.17;19.08;;;10.50;63.10;;;;;;5055016;28;20059;-81
2022/03/21 08:20:55;;;;;;;25.77;17.92;;;10.60;62.70;;;;;;5056929;28;20051;-81
2022/03/21 08:23:45;;;;;;;27.20;18.55;;;11.00;60.70;;;;;;5059565;28;20052;-83
2022/03/21 08:26:37;;;;;;;28.60;18.83;;;11.50;60.80;;;;;;5037827;28;20045;-82
2022/03/21 08:29:24;;;;;;;32.33;18.15;;;11.80;59.40;;;;;;5058570;28;20041;-79
2022/03/21 08:32:16;;;;;;;30.98;17.20;;;12.40;57.30;;;;;;5038632;28;20338;-81
2022/03/21 08:35:10;;;;;;;25.20;17.73;;;12.40;56.70;;;;;;5048540;28;20140;-83
2022/03/21 08:37:57;;;;;;;25.48;16.92;;;13.20;57.00;;;;;;5041575;28;20045;-83
2022/03/21 08:40:47;;;;;;;23.55;16.75;;;13.90;53.20;;;;;;5033157;28;20373;-83
2022/03/21 08:43:34;;;;;;;23.70;16.92;;;14.10;51.90;;;;;;5042991;28;20141;-80
2022/03/21 08:46:24;;;;;;;28.98;19.20;;;13.90;51.70;;;;;;5035362;28;20053;-81
2022/03/21 08:49:28;;;;;;;28.05;18.58;;;14.00;52.60;;;;;;5040012;28;20045;-81
2022/03/21 08:52:19;;;;;;;25.58;17.30;;;14.00;52.80;;;;;;5040881;28;20045;-79
2022/03/21 08:55:07;;;;;;;26.27;18.40;;;14.10;52.20;;;;;;5037299;28;20053;-81
2022/03/21 08:57:58;;;;;;;22.80;17.20;;;14.60;51.70;;;;;;5046468;28;20150;-81
2022/03/21 09:00:48;;;;;;;25.00;17.70;;;15.60;50.00;;;;;;5032226;28;20044;-81
2022/03/21 09:03:41;;;;;;;24.30;17.60;;;15.70;47.00;;;;;;5048584;28;20739;-80
2022/03/21 09:06:30;;;;;;;24.45;17.45;;;15.30;47.80;;;;;;5058458;28;20055;-80
2022/03/21 09:09:21;;;;;;;25.10;18.05;;;15.30;48.90;;;;;;5043062;28;20048;-82
2022/03/21 09:12:14;;;;;;;27.42;17.65;;;15.00;48.80;;;;;;5041038;28;20049;-81
2022/03/21 09:15:03;;;;;;;28.00;18.60;;;15.40;47.50;;;;;;5037428;28;20049;-82
2022/03/21 09:17:54;;;;;;;28.67;18.70;;;14.90;51.50;;;;;;5040092;28;20045;-81
2022/03/21 09:20:42;;;;;;;26.70;18.67;;;15.20;48.60;;;;;;5057897;28;20051;-83
2022/03/21 09:23:30;;;;;;;28.83;18.88;;;15.20;47.90;;;;;;5049668;28;20041;-81
2022/03/21 09:26:19;;;;;;;24.80;17.20;;;15.40;47.20;;;;;;5056681;28;20037;-83
2022/03/21 09:29:07;;;;;;;26.15;17.83;;;16.00;46.50;;;;;;5050313;28;20446;-82
2022/03/21 09:32:01;;;;;;;23.58;17.35;;;16.50;44.80;;;;;;5046909;28;20045;-82
2022/03/21 09:34:49;;;;;;;29.10;18.48;;;16.90;44.90;;;;;;5064139;28;20041;-81
2022/03/21 09:37:37;;;;;;;29.13;18.77;;;17.20;43.40;;;;;;5055762;28;20049;-80
2022/03/21 09:40:28;;;;;;;26.27;18.35;;;17.00;43.80;;;;;;5054454;28;20041;-80
2022/03/21 09:43:16;;;;;;;27.23;18.60;;;16.80;43.70;;;;;;5046506;28;20393;-82
2022/03/21 09:46:04;;;;;;;27.65;18.73;;;16.50;45.00;;;;;;5052789;28;20057;-80
2022/03/21 09:48:55;;;;;;;25.60;18.63;;;16.50;43.60;;;;;;5076702;28;20144;-80
2022/03/21 09:51:44;;;;;;;27.45;18.17;;;16.60;46.00;;;;;;5063538;28;20029;-83
2022/03/21 09:54:33;;;;;;;24.63;18.08;;;17.30;43.90;;;;;;5041579;28;20105;-83
2022/03/21 09:57:21;;;;;;;27.83;18.35;;;18.00;42.00;;;;;;5065574;28;20144;-82
2022/03/21 10:00:09;;;;;;;23.70;16.80;;;18.40;41.30;;;;;;5069864;28;20057;-82
2022/03/21 10:02:57;;;;;;;27.40;17.83;;;18.40;41.00;;;;;;5074862;28;20033;-81
2022/03/21 10:05:50;;;;;;;24.70;17.65;;;18.70;39.10;;;;;;5069280;28;20064;-80
2022/03/21 10:08:38;;;;;;;25.27;17.83;;;18.50;39.90;;;;;;5042738;28;20057;-82
2022/03/21 10:11:28;;;;;;;22.30;16.23;;;19.10;38.70;;;;;;5019964;28;20064;-81
2022/03/21 10:14:28;;;;;;;23.60;17.05;;;19.50;38.20;;;;;;5054259;28;20107;-82
2022/03/21 10:17:24;;;;;;;24.45;17.65;;;20.50;36.70;;;;;;5035461;28;20037;-81
2022/03/21 10:20:15;;;;;;;22.60;16.30;;;19.90;36.70;;;;;;5051401;28;20077;-83
2022/03/21 10:23:24;;;;;;;25.92;17.48;;;19.40;40.00;;;;;;5038760;28;20052;-83
2022/03/21 10:26:33;;;;;;;26.42;16.45;;;19.10;38.10;;;;;;5039201;28;20076;-80
2022/03/21 10:29:25;;;;;;;22.50;15.27;;;18.80;38.80;;;;;;5039291;28;20045;-81
2022/03/21 10:32:29;;;;;;;;;;;18.10;21.00;;;;;;5051870;28;20056;-82
2022/03/21 10:35:22;;;;;;;23.60;16.25;;;18.10;1.00;;;;;;5070472;28;20250;-80
2022/03/21 10:38:11;;;;;;;21.95;15.20;;;17.80;1.00;;;;;;5048369;28;20401;-81
2022/03/21 10:41:36;;;;;;;25.40;17.23;;;17.80;1.00;;;;;;5036382;28;20045;-81
2022/03/21 10:44:26;;;;;;;26.75;16.20;;;18.50;1.00;;;;;;5053548;28;20098;-82
2022/03/21 10:47:16;;;;;;;24.67;15.52;;;19.10;1.00;;;;;;5052219;28;20315;-83
2022/03/21 10:50:07;;;;;;;22.33;15.40;;;19.70;1.00;;;;;;5060619;28;20052;-82
2022/03/21 10:53:21;;;;;;;21.75;15.27;;;20.80;1.00;;;;;;5051520;28;20045;-80
2022/03/21 10:56:12;;;;;;;20.35;15.15;;;21.90;1.00;;;;;;5036568;28;20132;-82
2022/03/21 10:59:07;;;;;;;24.58;14.88;;;22.40;1.00;;;;;;5057171;28;20073;-82
2022/03/21 11:02:14;;;;;;;21.02;15.82;;;22.10;99.90;;;;;;5053062;28;20094;-82
2022/03/21 11:05:08;;;;;;;23.40;15.40;;;22.10;8.30;;;;;;5055156;28;20104;-82
2022/03/21 11:07:58;;;;;;;22.95;15.43;;;22.40;99.90;;;;;;5046563;28;20432;-81
2022/03/21 11:10:46;;;;;;;21.17;15.05;;;23.60;1.00;;;;;;5058440;28;20163;-83
2022/03/21 11:14:14;;;;;;;22.15;14.70;;;23.30;1.00;;;;;;5028115;28;20140;-84
2022/03/21 11:42:11;;;;;;;21.67;14.43;;;22.80;9.40;;;;;;4973894;28;20060;-85
2022/03/21 11:45:24;;;;;;;18.80;13.82;;;22.30;11.40;;;;;;5032047;28;20052;-83
2022/03/21 11:48:19;;;;;;;19.30;14.00;;;22.60;10.20;;;;;;5045103;28;20072;-82
2022/03/21 11:51:18;;;;;;;22.77;14.90;;;22.70;8.40;;;;;;5042540;28;20037;-83
2022/03/21 11:54:24;;;;;;;20.67;15.23;;;22.60;10.80;;;;;;5056970;28;20346;-82
2022/03/21 11:57:17;;;;;;;20.80;16.15;;;22.80;9.90;;;;;;5053490;28;20051;-82
2022/03/21 12:00:15;;;;;;;21.63;15.52;;;22.30;10.70;;;;;;5045899;28;20466;-83
2022/03/21 12:03:03;;;;;;;20.67;15.50;;;20.90;12.80;;;;;;5057490;28;20059;-83
2022/03/21 12:05:51;;;;;;;20.05;14.15;;;21.00;13.50;;;;;;5022998;28;20045;-83
2022/03/21 12:08:44;;;;;;;25.15;15.43;;;21.80;11.40;;;;;;5061366;28;20060;-86
2022/03/21 12:11:40;;;;;;;28.48;16.63;;;21.90;11.90;;;;;;5056970;28;20057;-89
2022/03/21 12:14:44;;;;;;;26.02;16.52;;;22.20;11.60;;;;;;5042550;28;20053;-89
2022/03/21 12:17:34;;;;;;;25.15;15.88;;;22.50;10.70;;;;;;5048080;28;20049;-86
2022/03/21 12:20:23;;;;;;;26.25;16.23;;;22.30;11.10;;;;;;5055226;28;20057;-85
2022/03/21 12:23:21;;;;;;;26.10;16.90;;;21.70;11.10;;;;;;5056938;28;20041;-84
2022/03/21 12:26:13;;;;;;;26.23;16.52;;;23.30;11.60;;;;;;5056384;28;20171;-85
2022/03/21 12:29:33;;;;;;;26.80;15.27;;;24.10;9.30;;;;;;5043847;28;20124;-85
2022/03/21 12:32:26;;;;;;;23.50;15.25;;;25.70;13.00;;;;;;5058372;28;20103;-87
2022/03/21 12:35:32;;;;;;;26.15;16.52;;;25.30;14.50;;;;;;5048876;28;20045;-80
2022/03/21 12:38:36;;;;;;;22.42;16.13;;;25.30;15.40;;;;;;5049224;28;20056;-83
2022/03/21 12:41:33;;;;;;;21.15;15.70;;;25.80;13.60;;;;;;5038740;28;20041;-80
2022/03/21 12:44:25;;;;;;;26.40;16.27;;;25.60;17.60;;;;;;5037077;28;20093;-82
2022/03/21 12:47:12;;;;;;;24.63;15.13;;;25.70;20.50;;;;;;5028163;28;20109;-81
2022/03/21 12:50:16;;;;;;;22.60;15.45;;;26.40;22.80;;;;;;5047332;28;20052;-83
2022/03/21 12:53:09;;;;;;;27.23;15.35;;;26.00;25.00;;;;;;5051914;28;20037;-82
2022/03/21 12:56:03;;;;;;;23.45;14.50;;;26.00;26.40;;;;;;5041933;28;20147;-80
2022/03/21 12:58:57;;;;;;;22.42;14.50;;;25.20;26.90;;;;;;5039961;28;20067;-81
2022/03/21 13:01:44;;;;;;;20.45;15.80;;;25.40;25.90;;;;;;5050882;28;20159;-79
2022/03/21 13:10:50;;;;;;;19.35;15.05;;;25.60;26.50;;;;;;5050853;28;20041;-83
2022/03/21 13:13:51;;;;;;;22.70;15.65;;;25.50;25.80;;;;;;5051488;28;20040;-83
2022/03/21 13:16:49;;;;;;;18.92;14.50;;;25.00;26.70;;;;;;5050191;28;20044;-82
2022/03/21 13:19:51;;;;;;;21.73;14.90;;;24.30;26.20;;;;;;5057901;28;20037;-82
2022/03/21 13:22:43;;;;;;;20.33;14.60;;;23.50;27.50;;;;;;5039123;28;20124;-82
2022/03/21 13:25:36;;;;;;;25.33;15.77;;;22.30;29.30;;;;;;5049864;28;20099;-80
2022/03/21 13:28:32;;;;;;;22.85;15.68;;;21.60;30.40;;;;;;5028392;28;20091;-81
2022/03/21 13:31:25;;;;;;;23.90;15.38;;;21.80;31.30;;;;;;5047625;28;20085;-81
2022/03/21 13:34:21;;;;;;;24.40;15.68;;;22.30;29.40;;;;;;5048001;28;20112;-83
2022/03/21 13:37:23;;;;;;;35.45;15.98;;;22.00;29.90;;;;;;5057902;28;20075;-81
2022/03/21 13:40:13;;;;;;;25.60;14.75;;;21.90;29.30;;;;;;5057869;28;20065;-81
2022/03/21 13:43:18;;;;;;;25.42;14.82;;;21.30;30.30;;;;;;5052287;28;20053;-79
2022/03/21 13:46:05;;;;;;;27.02;15.27;;;21.20;30.00;;;;;;5061040;28;20111;-78
2022/03/21 13:48:57;;;;;;;29.25;14.95;;;21.10;30.30;;;;;;5051899;28;20371;-79
2022/03/21 13:51:44;;;;;;;26.65;14.23;;;20.30;31.20;;;;;;5053507;28;20045;-80
2022/03/21 13:54:51;;;;;;;21.00;14.48;;;20.40;31.30;;;;;;5040841;28;20049;-77
2022/03/21 13:57:48;;;;;;;24.08;14.52;;;20.20;31.50;;;;;;5061128;28;20038;-81
2022/03/21 14:00:47;;;;;;;26.55;14.73;;;20.90;31.30;;;;;;5058948;28;20138;-81
2022/03/21 14:03:45;;;;;;;23.90;14.13;;;20.70;31.50;;;;;;5065998;28;20167;-82
2022/03/21 14:06:32;;;;;;;24.88;14.48;;;21.00;29.00;;;;;;5060476;28;20045;-80
2022/03/21 14:09:49;;;;;;;30.23;14.90;;;21.40;29.30;;;;;;5062836;28;20045;-81
2022/03/21 14:12:39;;;;;;;20.65;12.80;;;21.30;30.10;;;;;;5050387;28;20481;-82
2022/03/21 14:15:32;;;;;;;20.95;13.88;;;21.90;30.50;;;;;;5047517;28;20053;-82
2022/03/21 14:18:23;;;;;;;18.98;13.27;;;22.50;29.60;;;;;;5040182;28;20049;-82
2022/03/21 14:21:11;;;;;;;25.57;15.13;;;21.70;29.10;;;;;;5048347;28;20061;-81
2022/03/21 14:24:02;;;;;;;27.02;13.38;;;20.80;31.40;;;;;;5049810;28;20047;-81
2022/03/21 14:26:50;;;;;;;22.40;14.13;;;21.10;31.50;;;;;;5054549;28;20124;-79
2022/03/21 14:29:38;;;;;;;27.20;15.30;;;21.00;31.70;;;;;;5045097;28;20509;-81
2022/03/21 14:32:25;;;;;;;24.38;14.27;;;20.60;30.60;;;;;;5053694;28;20076;-81
2022/03/21 14:35:14;;;;;;;34.15;15.07;;;19.90;32.00;;;;;;5051300;28;20061;-81
2022/03/21 14:38:02;;;;;;;24.25;13.98;;;19.90;32.90;;;;;;5031451;28;20337;-82
2022/03/21 14:40:49;;;;;;;26.48;14.35;;;19.70;33.60;;;;;;5048206;28;20077;-80
2022/03/21 14:43:37;;;;;;;32.88;15.57;;;19.80;33.70;;;;;;5049644;28;20055;-81
2022/03/21 14:46:24;;;;;;;23.05;14.57;;;19.90;33.90;;;;;;5049160;28;20052;-81
2022/03/21 14:49:11;;;;;;;22.17;14.30;;;20.10;33.10;;;;;;5041135;28;20068;-82
2022/03/21 14:51:59;;;;;;;24.65;14.07;;;19.90;32.90;;;;;;5046646;28;20064;-84
2022/03/21 14:54:48;;;;;;;28.02;14.77;;;20.30;32.50;;;;;;5049329;28;20379;-86
2022/03/21 14:57:41;;;;;;;27.85;15.50;;;20.20;32.10;;;;;;5030298;28;20128;-82
2022/03/21 15:00:29;;;;;;;23.23;14.23;;;19.60;33.40;;;;;;5053437;28;20049;-83
2022/03/21 15:03:17;;;;;;;25.42;13.80;;;19.40;34.30;;;;;;5051750;28;20163;-83
2022/03/21 15:06:07;;;;;;;24.02;14.65;;;19.30;34.20;;;;;;5054240;28;20041;-84
2022/03/21 15:08:56;;;;;;;24.17;13.20;;;19.10;33.90;;;;;;5050028;28;20037;-84
2022/03/21 15:11:46;;;;;;;25.08;13.23;;;18.50;34.90;;;;;;5035518;28;20060;-83
2022/03/21 15:14:41;;;;;;;29.65;13.93;;;18.20;34.70;;;;;;5050630;28;20384;-85
2022/03/21 15:17:30;;;;;;;21.88;13.50;;;18.10;35.80;;;;;;5049576;28;20178;-80
2022/03/21 15:20:18;;;;;;;26.58;13.40;;;18.30;36.70;;;;;;5053363;28;20347;-82
2022/03/21 15:23:07;;;;;;;23.02;12.15;;;18.70;35.90;;;;;;5055444;28;20326;-81
2022/03/21 15:25:55;;;;;;;20.88;12.73;;;18.70;34.30;;;;;;5068488;28;20045;-84
2022/03/21 15:28:43;;;;;;;25.63;13.25;;;18.40;34.70;;;;;;5050943;28;20091;-83
2022/03/21 15:31:32;;;;;;;21.27;12.18;;;18.40;35.30;;;;;;5045241;28;20086;-83
2022/03/21 15:34:20;;;;;;;22.50;12.88;;;18.50;35.20;;;;;;5055022;28;20130;-81
2022/03/21 15:43:20;;;;;;;27.00;12.10;;;18.30;36.10;;;;;;5057311;28;20041;-83
2022/03/21 15:46:08;;;;;;;22.88;12.43;;;17.70;36.20;;;;;;5047025;28;20041;-81
2022/03/21 15:49:00;;;;;;;22.10;11.75;;;17.20;37.30;;;;;;5045150;28;20047;-83
2022/03/21 15:51:50;;;;;;;24.38;11.48;;;16.70;37.30;;;;;;5042101;28;20394;-82
2022/03/21 15:54:39;;;;;;;24.65;11.60;;;16.20;37.60;;;;;;5049786;28;20064;-83
2022/03/21 15:57:30;;;;;;;20.20;10.68;;;15.60;39.20;;;;;;5037871;28;20068;-83